createdAt,value
2019-04-16T00:01:49.018Z,32.56
2019-04-16T00:04:24.984Z,32.55
2019-04-16T00:06:58.187Z,32.62
2019-04-16T00:09:31.271Z,32.67
2019-04-16T00:12:03.758Z,32.50
2019-04-16T00:14:36.341Z,32.22
2019-04-16T00:17:13.199Z,32.13
2019-04-16T00:19:44.284Z,32.04
2019-04-16T00:22:17.248Z,32.00
2019-04-16T00:24:49.653Z,32.00
2019-04-16T00:27:20.949Z,32.01
2019-04-16T00:29:52.688Z,32.05
2019-04-16T00:32:26.137Z,32.05
2019-04-16T00:34:57.580Z,32.08
2019-04-16T00:37:29.456Z,32.20
2019-04-16T00:40:00.495Z,32.24
2019-04-16T00:42:31.591Z,32.28
2019-04-16T00:45:02.339Z,32.30
2019-04-16T00:47:32.964Z,32.37
2019-04-16T00:50:03.959Z,32.37
2019-04-16T00:52:36.922Z,32.48
2019-04-16T00:55:13.710Z,32.51
2019-04-16T00:57:48.420Z,32.63
2019-04-16T01:00:16.457Z,32.77
2019-04-16T01:02:48.283Z,32.88
2019-04-16T01:05:20.010Z,32.90
2019-04-16T01:07:49.941Z,32.99
2019-04-16T01:10:22.647Z,33.07
2019-04-16T01:12:54.415Z,33.06
2019-04-16T01:15:25.924Z,33.20
2019-04-16T01:17:57.064Z,33.26
2019-04-16T01:20:27.386Z,33.28
2019-04-16T01:22:59.163Z,33.40
2019-04-16T01:25:30.901Z,33.31
2019-04-16T01:28:04.200Z,33.46
2019-04-16T01:30:37.198Z,33.61
2019-04-16T01:33:14.634Z,33.73
2019-04-16T01:35:51.029Z,33.82
2019-04-16T01:38:27.668Z,33.89
2019-04-16T01:40:58.071Z,33.94
2019-04-16T01:43:29.705Z,33.96
2019-04-16T01:46:02.467Z,33.97
2019-04-16T01:48:38.665Z,34.14
2019-04-16T01:51:07.729Z,34.28
2019-04-16T01:53:39.262Z,34.43
2019-04-16T01:56:09.179Z,34.62
2019-04-16T01:58:41.169Z,34.66
2019-04-16T02:01:15.404Z,34.77
2019-04-16T02:03:48.905Z,34.83
2019-04-16T02:06:19.953Z,34.87
2019-04-16T02:08:51.969Z,34.87
2019-04-16T02:11:23.059Z,34.79
2019-04-16T02:13:54.655Z,34.97
2019-04-16T02:16:26.153Z,35.08
2019-04-16T02:19:00.778Z,34.98
2019-04-16T02:21:30.595Z,34.95
2019-04-16T02:24:01.751Z,34.87
2019-04-16T02:26:31.817Z,35.00
2019-04-16T02:29:02.740Z,35.02
2019-04-16T02:31:36.108Z,34.92
2019-04-16T02:34:09.287Z,34.93
2019-04-16T02:36:40.889Z,34.91
2019-04-16T02:39:16.004Z,34.95
2019-04-16T02:41:46.787Z,35.14
2019-04-16T02:44:18.647Z,35.32
2019-04-16T02:47:04.388Z,35.43
2019-04-16T02:49:30.120Z,35.60
2019-04-16T02:52:02.089Z,35.60
2019-04-16T02:54:35.922Z,35.54
2019-04-16T02:57:08.622Z,35.75
2019-04-16T02:59:47.347Z,35.78
2019-04-16T03:02:23.185Z,35.87
2019-04-16T03:04:58.190Z,35.87
2019-04-16T03:07:28.496Z,35.78
2019-04-16T03:10:01.424Z,35.60
2019-04-16T03:12:33.314Z,35.61
2019-04-16T03:15:04.324Z,35.31
2019-04-16T03:17:39.551Z,35.31
2019-04-16T03:20:11.154Z,35.33
2019-04-16T03:22:42.555Z,35.39
2019-04-16T03:25:14.799Z,35.79
2019-04-16T03:27:47.515Z,35.90
2019-04-16T03:30:20.540Z,35.99
2019-04-16T03:32:53.517Z,36.19
2019-04-16T03:35:26.789Z,36.34
2019-04-16T03:38:04.174Z,36.34
2019-04-16T03:40:34.932Z,36.70
2019-04-16T03:43:06.371Z,36.70
2019-04-16T03:45:40.320Z,36.90
2019-04-16T03:48:09.603Z,36.98
2019-04-16T03:50:41.280Z,36.97
2019-04-16T03:53:16.391Z,36.76
2019-04-16T03:55:46.046Z,36.99
2019-04-16T03:58:17.565Z,37.01
2019-04-16T04:00:48.747Z,36.68
2019-04-16T04:03:20.444Z,36.70
2019-04-16T04:05:52.727Z,36.61
2019-04-16T04:08:23.468Z,36.49
2019-04-16T04:10:54.791Z,36.38
2019-04-16T04:13:26.421Z,36.31
2019-04-16T04:16:01.214Z,36.22
2019-04-16T04:18:30.617Z,36.28
2019-04-16T04:21:01.611Z,36.63
2019-04-16T04:23:32.176Z,36.64
2019-04-16T04:26:05.538Z,36.64
2019-04-16T04:28:36.750Z,36.68
2019-04-16T04:31:08.242Z,36.72
2019-04-16T04:33:42.681Z,36.72
2019-04-16T04:36:14.031Z,36.81
2019-04-16T04:38:46.951Z,36.81
2019-04-16T04:41:19.987Z,36.69
2019-04-16T04:43:52.253Z,36.61
2019-04-16T04:46:26.849Z,36.55
2019-04-16T04:49:00.215Z,36.67
2019-04-16T04:51:32.771Z,36.81
2019-04-16T04:54:04.437Z,36.83
2019-04-16T04:56:35.808Z,36.96
2019-04-16T04:59:07.171Z,37.05
2019-04-16T05:01:42.087Z,37.24
2019-04-16T05:04:13.281Z,37.29
2019-04-16T05:06:45.523Z,37.70
2019-04-16T05:09:25.206Z,37.55
2019-04-16T05:11:56.190Z,37.48
2019-04-16T05:14:27.742Z,37.49
2019-04-16T05:17:03.538Z,37.43
2019-04-16T05:19:34.946Z,37.25
2019-04-16T05:22:06.184Z,37.31
2019-04-16T05:24:38.720Z,37.33
2019-04-16T05:27:17.341Z,37.42
2019-04-16T05:29:49.574Z,37.42
2019-04-16T05:32:20.665Z,37.57
2019-04-16T05:34:51.663Z,37.42
2019-04-16T05:37:23.347Z,37.38
2019-04-16T05:39:58.616Z,37.37
2019-04-16T05:42:32.627Z,37.38
2019-04-16T05:45:06.428Z,37.59
2019-04-16T05:47:38.059Z,37.39
2019-04-16T05:50:10.038Z,37.31
2019-04-16T05:52:44.098Z,37.40
2019-04-16T05:55:18.044Z,37.46
2019-04-16T05:57:52.357Z,37.42
2019-04-16T06:00:25.143Z,37.30
2019-04-16T06:02:59.243Z,37.26
2019-04-16T06:05:30.532Z,37.31
2019-04-16T06:08:06.350Z,37.50
2019-04-16T06:10:36.884Z,37.65
2019-04-16T06:13:13.264Z,37.67
2019-04-16T06:15:44.980Z,37.70
2019-04-16T06:18:18.743Z,37.73
2019-04-16T06:20:52.897Z,37.67
2019-04-16T06:23:26.248Z,37.68
2019-04-16T06:25:59.430Z,37.90
2019-04-16T06:28:30.449Z,37.77
2019-04-16T06:31:04.938Z,37.86
2019-04-16T06:33:36.291Z,37.88
2019-04-16T06:36:09.091Z,37.97
2019-04-16T06:38:41.039Z,37.90
2019-04-16T06:41:13.537Z,38.11
2019-04-16T06:43:46.937Z,38.07
2019-04-16T06:46:19.544Z,37.99
2019-04-16T06:48:52.918Z,37.98
2019-04-16T06:51:25.688Z,37.86
2019-04-16T06:54:00.289Z,38.03
2019-04-16T06:56:32.743Z,38.01
2019-04-16T06:59:06.693Z,37.80
2019-04-16T07:01:41.508Z,37.88
2019-04-16T07:04:12.654Z,37.70
2019-04-16T07:06:45.303Z,37.71
2019-04-16T07:09:23.386Z,37.70
2019-04-16T07:11:55.118Z,37.58
2019-04-16T07:14:30.057Z,37.63
2019-04-16T07:17:01.219Z,37.97
2019-04-16T07:19:32.185Z,37.76
2019-04-16T07:22:02.310Z,37.77
2019-04-16T07:24:37.400Z,37.79
2019-04-16T07:27:07.997Z,38.07
2019-04-16T07:29:41.876Z,37.81
2019-04-16T07:32:14.888Z,38.03
2019-04-16T07:34:47.654Z,38.07
2019-04-16T07:37:20.896Z,37.90
2019-04-16T07:39:56.716Z,37.74
2019-04-16T07:42:29.674Z,37.78
2019-04-16T07:45:03.592Z,37.98
2019-04-16T07:47:38.338Z,38.01
2019-04-16T07:50:12.276Z,38.02
2019-04-16T07:52:44.690Z,37.94
2019-04-16T07:55:17.127Z,38.17
2019-04-16T07:57:47.851Z,38.16
2019-04-16T08:00:20.313Z,38.02
2019-04-16T08:02:53.783Z,38.02
2019-04-16T08:05:27.904Z,38.02
2019-04-16T08:07:57.607Z,37.87
2019-04-16T08:10:29.071Z,37.89
2019-04-16T08:13:01.886Z,37.95
2019-04-16T08:15:33.751Z,37.87
2019-04-16T08:18:06.171Z,37.99
2019-04-16T08:20:37.321Z,37.78
2019-04-16T08:23:09.774Z,37.73
2019-04-16T08:25:41.177Z,37.82
2019-04-16T08:28:12.201Z,37.71
2019-04-16T08:30:43.103Z,37.76
2019-04-16T08:33:16.536Z,37.72
2019-04-16T08:35:48.770Z,37.70
2019-04-16T08:38:27.150Z,37.61
2019-04-16T08:40:59.393Z,37.55
2019-04-16T08:43:33.699Z,37.73
2019-04-16T08:46:10.016Z,37.73
2019-04-16T08:48:38.262Z,37.64
2019-04-16T08:51:10.613Z,37.59
2019-04-16T08:53:43.784Z,37.53
2019-04-16T08:56:18.886Z,37.57
2019-04-16T08:58:52.163Z,37.48
2019-04-16T09:01:25.677Z,37.66
2019-04-16T09:04:01.207Z,37.66
2019-04-16T09:06:29.622Z,37.71
2019-04-16T09:09:11.544Z,37.69
2019-04-16T09:11:36.077Z,37.66
2019-04-16T09:14:09.392Z,37.61
2019-04-16T09:16:43.667Z,37.63
2019-04-16T09:19:16.350Z,37.55
2019-04-16T09:21:47.358Z,37.53
2019-04-16T09:24:19.992Z,37.52
2019-04-16T09:26:55.676Z,37.50
2019-04-16T09:29:26.712Z,37.38
2019-04-16T09:32:01.638Z,37.41
2019-04-16T09:34:35.660Z,37.34
2019-04-16T09:37:08.937Z,37.32
2019-04-16T09:39:42.634Z,37.25
2019-04-16T09:42:14.498Z,37.28
2019-04-16T09:44:46.869Z,37.30
2019-04-16T09:47:18.167Z,37.29
2019-04-16T09:49:48.053Z,37.25
2019-04-16T09:52:19.744Z,37.28
2019-04-16T09:54:53.042Z,37.34
2019-04-16T09:57:24.779Z,37.33
2019-04-16T09:59:57.697Z,37.34
2019-04-16T10:02:31.037Z,37.26
2019-04-16T10:05:03.703Z,37.25
2019-04-16T10:07:39.955Z,37.40
2019-04-16T10:10:09.629Z,37.39
2019-04-16T10:12:44.137Z,37.48
2019-04-16T10:15:18.673Z,37.30
2019-04-16T10:17:50.617Z,37.31
2019-04-16T10:20:22.007Z,37.35
2019-04-16T10:22:54.014Z,37.23
2019-04-16T10:25:25.485Z,37.25
2019-04-16T10:27:57.902Z,37.19
2019-04-16T10:30:31.249Z,37.08
2019-04-16T10:33:02.659Z,37.08
2019-04-16T10:35:34.302Z,37.01
2019-04-16T10:38:06.829Z,36.97
2019-04-16T10:40:40.179Z,36.94
2019-04-16T10:43:17.999Z,36.78
2019-04-16T10:45:54.362Z,36.64
2019-04-16T10:48:26.836Z,36.64
2019-04-16T10:50:59.426Z,36.50
2019-04-16T10:53:32.676Z,36.37
2019-04-16T10:56:05.084Z,36.38
2019-04-16T10:58:36.547Z,36.29
2019-04-16T11:01:09.096Z,36.29
2019-04-16T11:03:41.624Z,36.24
2019-04-16T11:06:15.485Z,36.22
2019-04-16T11:08:46.591Z,36.22
2019-04-16T11:11:17.829Z,36.19
2019-04-16T11:13:59.840Z,36.12
2019-04-16T11:16:21.949Z,36.09
2019-04-16T11:18:54.987Z,36.04
2019-04-16T11:21:25.009Z,35.96
2019-04-16T11:24:01.945Z,35.93
2019-04-16T11:26:33.568Z,35.88
2019-04-16T11:29:05.351Z,35.88
2019-04-16T11:31:36.737Z,35.80
2019-04-16T11:34:13.200Z,35.76
2019-04-16T11:36:44.190Z,35.74
2019-04-16T11:39:15.301Z,35.72
2019-04-16T11:41:46.874Z,35.60
2019-04-16T11:44:23.783Z,35.48
2019-04-16T11:46:54.957Z,35.46
2019-04-16T11:49:26.430Z,35.47
2019-04-16T11:51:57.645Z,35.42
2019-04-16T11:54:29.355Z,35.43
2019-04-16T11:57:01.561Z,35.39
2019-04-16T11:59:32.560Z,35.38
2019-04-16T12:02:05.126Z,35.36
2019-04-16T12:04:37.849Z,35.24
2019-04-16T12:07:10.349Z,35.28
2019-04-16T12:09:43.207Z,35.20
2019-04-16T12:12:22.251Z,35.21
2019-04-16T12:14:54.948Z,35.18
2019-04-16T12:17:27.527Z,35.16
2019-04-16T12:20:00.682Z,35.16
2019-04-16T12:22:34.432Z,35.07
2019-04-16T12:25:07.918Z,35.04
2019-04-16T12:27:40.213Z,34.97
2019-04-16T12:30:13.547Z,35.01
2019-04-16T12:32:46.283Z,35.00
2019-04-16T12:35:19.145Z,34.81
2019-04-16T12:37:58.516Z,34.81
2019-04-16T12:40:32.463Z,34.82
2019-04-16T12:43:16.005Z,34.84
2019-04-16T12:45:44.680Z,34.83
2019-04-16T12:48:17.247Z,34.84
2019-04-16T12:50:49.577Z,34.76
2019-04-16T12:53:22.287Z,34.70
2019-04-16T12:55:55.064Z,34.71
2019-04-16T12:58:27.745Z,34.70
2019-04-16T13:00:59.721Z,34.68
2019-04-16T13:03:32.014Z,34.60
2019-04-16T13:06:04.645Z,34.60
2019-04-16T13:08:42.364Z,34.58
2019-04-16T13:11:10.899Z,34.53
2019-04-16T14:31:07.105Z,33.55
2019-04-16T14:33:40.472Z,33.35
2019-04-16T14:36:13.342Z,33.25
2019-04-16T14:38:46.087Z,33.23
2019-04-16T14:41:17.535Z,33.20
2019-04-16T14:43:50.441Z,33.26
2019-04-16T14:46:29.132Z,33.25
2019-04-16T14:49:01.981Z,33.25
2019-04-16T14:51:33.575Z,33.25
2019-04-16T14:54:06.433Z,33.28
2019-04-16T14:56:38.528Z,33.27
2019-04-16T14:59:12.057Z,33.28
2019-04-16T15:01:44.826Z,33.31
2019-04-16T15:04:17.802Z,33.29
2019-04-16T15:06:52.899Z,33.27
2019-04-16T15:09:24.601Z,33.28
2019-04-16T15:11:58.310Z,33.23
2019-04-16T15:14:32.737Z,33.27
2019-04-16T15:17:12.665Z,33.30
2019-04-16T15:19:43.442Z,33.25
2019-04-16T15:22:16.524Z,33.24
2019-04-16T15:24:49.104Z,33.25
2019-04-16T15:27:23.602Z,33.18
2019-04-16T15:29:56.594Z,33.24
2019-04-16T15:32:29.664Z,33.23
2019-04-16T15:35:03.135Z,33.24
2019-04-16T15:37:36.495Z,33.26
2019-04-16T15:40:10.475Z,33.21
2019-04-16T15:42:42.925Z,33.23
2019-04-16T15:45:15.901Z,33.22
2019-04-16T15:47:48.857Z,33.28
2019-04-16T15:50:35.817Z,33.29
2019-04-16T15:53:04.508Z,33.25
2019-04-16T15:55:38.577Z,33.24
2019-04-16T15:58:14.855Z,33.24
2019-04-16T16:00:49.986Z,33.21
2019-04-16T16:03:27.150Z,33.16
2019-04-16T16:06:06.401Z,33.20
2019-04-16T16:08:42.021Z,33.18
2019-04-16T16:11:17.167Z,33.18
2019-04-16T16:13:51.907Z,33.16
2019-04-16T16:16:23.557Z,33.16
2019-04-16T16:19:01.363Z,32.90
2019-04-16T16:21:33.463Z,33.17
2019-04-16T16:24:07.952Z,33.15
2019-04-16T16:26:46.599Z,33.13
2019-04-16T16:29:33.823Z,33.12
2019-04-16T16:32:12.187Z,33.16
2019-04-16T16:34:45.404Z,33.10
2019-04-16T16:37:17.161Z,33.11
2019-04-16T16:39:54.047Z,33.10
2019-04-16T16:42:25.725Z,33.10
2019-04-16T16:45:02.983Z,33.11
2019-04-16T16:47:39.644Z,33.07
2019-04-16T16:50:11.721Z,33.05
2019-04-16T16:52:50.207Z,33.07
2019-04-16T16:55:26.303Z,33.02
2019-04-16T16:57:59.989Z,33.05
2019-04-16T17:00:39.325Z,33.05
2019-04-16T17:03:12.748Z,33.00
2019-04-16T17:05:45.833Z,32.97
2019-04-16T17:08:27.043Z,33.00
2019-04-16T17:10:58.210Z,33.01
2019-04-16T17:13:31.616Z,32.99
2019-04-16T17:16:06.424Z,32.95
2019-04-16T17:18:45.613Z,32.95
2019-04-16T17:21:17.035Z,32.97
2019-04-16T17:23:48.877Z,32.95
2019-04-16T17:26:20.441Z,32.91
2019-04-16T17:28:50.579Z,32.88
2019-04-16T17:31:22.688Z,32.89
2019-04-16T17:34:01.193Z,32.90
2019-04-16T17:36:32.973Z,32.88
2019-04-16T17:39:09.543Z,32.85
2019-04-16T17:41:40.557Z,32.89
2019-04-16T17:44:13.447Z,32.90
2019-04-16T17:46:46.772Z,32.88
2019-04-16T17:49:19.645Z,32.93
2019-04-16T17:51:52.794Z,32.90
2019-04-16T17:54:25.852Z,32.88
2019-04-16T17:56:59.080Z,32.88
2019-04-16T17:59:31.990Z,32.83
2019-04-16T18:02:04.815Z,32.80
2019-04-16T18:04:37.872Z,32.76
2019-04-16T18:07:11.170Z,32.75
2019-04-16T18:09:44.049Z,32.74
2019-04-16T18:12:19.865Z,32.81
2019-04-16T18:14:51.059Z,32.82
2019-04-16T18:17:26.667Z,32.83
2019-04-16T18:19:58.564Z,32.78
2019-04-16T18:22:32.165Z,32.76
2019-04-16T18:25:05.309Z,32.72
2019-04-16T18:27:38.453Z,32.74
2019-04-16T18:30:11.800Z,32.76
2019-04-16T18:32:45.132Z,32.80
2019-04-16T18:35:18.725Z,32.70
2019-04-16T18:37:52.274Z,32.69
2019-04-16T18:40:32.909Z,32.81
2019-04-16T18:43:04.464Z,32.80
2019-04-16T18:45:37.291Z,32.82
2019-04-16T18:48:13.904Z,32.72
2019-04-16T18:50:42.274Z,32.77
2019-04-16T18:53:13.568Z,32.77
2019-04-16T18:55:45.226Z,32.80
2019-04-16T18:58:17.462Z,32.72
2019-04-16T19:00:50.685Z,32.74
2019-04-16T19:03:21.763Z,32.74
2019-04-16T19:05:53.431Z,32.79
2019-04-16T19:08:40.429Z,32.79
2019-04-16T19:10:58.629Z,32.77
2019-04-16T19:13:30.367Z,32.72
2019-04-16T19:16:02.143Z,32.67
2019-04-16T19:18:33.875Z,32.72
2019-04-16T19:21:12.023Z,32.67
2019-04-16T19:23:47.126Z,32.70
2019-04-16T19:26:25.950Z,32.74
2019-04-16T19:28:57.619Z,32.66
2019-04-16T19:31:28.995Z,32.75
2019-04-16T19:33:59.615Z,32.67
2019-04-16T19:36:31.280Z,32.70
2019-04-16T19:39:05.113Z,32.65
2019-04-16T19:41:34.302Z,32.67
2019-04-16T19:44:07.721Z,32.63
2019-04-16T19:46:45.315Z,32.67
2019-04-16T19:49:15.467Z,32.68
2019-04-16T19:51:46.715Z,32.64
2019-04-16T19:54:18.452Z,32.67
2019-04-16T19:56:51.492Z,32.68
2019-04-16T19:59:22.461Z,32.64
2019-04-16T20:01:56.005Z,32.62
2019-04-16T20:04:27.515Z,32.60
2019-04-16T20:07:06.006Z,32.55
2019-04-16T20:09:39.221Z,32.52
2019-04-16T20:12:10.850Z,32.52
2019-04-16T20:14:42.347Z,32.56
2019-04-16T20:17:14.009Z,32.63
2019-04-16T20:19:46.859Z,32.47
2019-04-16T20:22:18.022Z,32.53
2019-04-16T20:24:49.672Z,32.49
2019-04-16T20:27:20.490Z,32.54
2019-04-16T20:29:52.271Z,32.45
2019-04-16T20:32:34.130Z,32.45
2019-04-16T20:35:10.930Z,32.51
2019-04-16T20:37:42.742Z,32.54
2019-04-16T20:40:17.722Z,32.53
2019-04-16T20:42:51.280Z,32.56
2019-04-16T20:45:24.208Z,32.47
2019-04-16T20:47:55.241Z,32.51
2019-04-16T20:50:26.447Z,32.46
2019-04-16T20:52:56.747Z,32.46
2019-04-16T20:55:28.596Z,32.50
2019-04-16T20:58:00.433Z,32.55
2019-04-16T21:00:33.734Z,32.49
2019-04-16T21:03:20.795Z,32.51
2019-04-16T21:05:38.115Z,32.55
2019-04-16T21:08:08.428Z,32.48
2019-04-16T21:10:39.912Z,32.50
2019-04-16T21:13:10.389Z,32.48
2019-04-16T21:15:42.141Z,32.51
2019-04-16T21:18:16.785Z,32.48
2019-04-16T21:20:51.063Z,32.48
2019-04-16T21:23:24.799Z,32.46
2019-04-16T21:25:57.571Z,32.45
2019-04-16T21:28:30.453Z,32.43
2019-04-16T21:31:03.246Z,32.40
2019-04-16T21:33:35.808Z,32.48
2019-04-16T21:36:08.917Z,32.41
2019-04-16T21:38:47.809Z,32.37
2019-04-16T21:41:19.769Z,32.37
2019-04-16T21:43:51.180Z,32.44
2019-04-16T21:46:22.920Z,32.37
2019-04-16T21:48:56.035Z,32.34
2019-04-16T21:51:26.492Z,32.38
2019-04-16T21:54:03.671Z,32.43
2019-04-16T21:56:36.933Z,32.39
2019-04-16T21:59:09.482Z,32.38
2019-04-16T22:01:41.739Z,32.35
2019-04-16T22:04:20.485Z,32.43
2019-04-16T22:06:52.554Z,32.43
2019-04-16T22:09:25.136Z,32.38
2019-04-16T22:11:56.941Z,32.40
2019-04-16T22:14:27.957Z,32.33
2019-04-16T22:17:05.107Z,32.36
2019-04-16T22:19:37.082Z,32.32
2019-04-16T22:22:11.650Z,32.39
2019-04-16T22:24:42.362Z,32.34
2019-04-16T22:27:13.915Z,32.34
2019-04-16T22:29:47.537Z,32.36
2019-04-16T22:32:18.544Z,32.36
